createdAt,value
2019-05-10T00:00:20.662Z,10.93
2019-05-10T00:03:11.339Z,10.90
2019-05-10T00:06:01.780Z,10.78
2019-05-10T00:08:45.605Z,10.81
2019-05-10T00:11:39.823Z,10.79
2019-05-10T00:14:30.313Z,10.81
2019-05-10T00:17:13.218Z,10.86
2019-05-10T00:19:45.179Z,10.80
2019-05-10T00:22:17.212Z,10.77
2019-05-10T00:25:03.128Z,10.75
2019-05-10T00:27:23.311Z,10.79
2019-05-10T00:29:55.273Z,10.74
2019-05-10T00:32:27.242Z,10.75
2019-05-10T00:34:59.602Z,10.77
2019-05-10T00:37:31.600Z,10.76
2019-05-10T00:40:04.946Z,10.71
2019-05-10T00:42:36.905Z,10.70
2019-05-10T00:45:08.869Z,10.69
2019-05-10T00:47:40.824Z,10.66
2019-05-10T00:50:12.897Z,10.64
2019-05-10T00:52:44.940Z,10.66
2019-05-10T00:55:19.343Z,10.72
2019-05-10T00:57:50.940Z,10.68
2019-05-10T01:00:22.889Z,10.65
2019-05-10T01:02:54.892Z,10.65
2019-05-10T01:05:26.890Z,10.75
2019-05-10T01:07:58.863Z,10.71
2019-05-10T01:10:30.859Z,10.67
2019-05-10T01:13:02.821Z,10.69
2019-05-10T01:15:34.876Z,10.73
2019-05-10T01:18:06.877Z,10.70
2019-05-10T01:20:38.846Z,10.73
2019-05-10T01:23:10.831Z,10.70
2019-05-10T01:25:42.800Z,10.74
2019-05-10T01:28:14.776Z,10.77
2019-05-10T01:30:46.739Z,10.77
2019-05-10T01:33:18.734Z,10.71
2019-05-10T01:35:50.697Z,10.75
2019-05-10T01:38:22.711Z,10.75
2019-05-10T01:40:54.671Z,10.72
2019-05-10T01:43:26.634Z,10.71
2019-05-10T01:45:58.650Z,10.73
2019-05-10T01:48:30.618Z,10.77
2019-05-10T01:51:02.590Z,10.74
2019-05-10T01:53:34.532Z,10.72
2019-05-10T01:56:06.459Z,10.71
2019-05-10T01:58:38.445Z,10.72
2019-05-10T02:01:10.444Z,10.67
2019-05-10T02:03:42.426Z,10.68
2019-05-10T02:06:14.393Z,10.64
2019-05-10T02:08:46.368Z,10.61
2019-05-10T02:11:18.343Z,10.60
2019-05-10T02:13:50.343Z,10.58
2019-05-10T02:16:22.297Z,10.62
2019-05-10T02:18:54.265Z,10.62
2019-05-10T02:21:26.229Z,10.63
2019-05-10T02:23:58.199Z,10.63
2019-05-10T02:26:30.137Z,10.61
2019-05-10T02:29:02.098Z,10.62
2019-05-10T02:31:34.035Z,10.62
2019-05-10T02:34:06.005Z,10.61
2019-05-10T02:36:40.691Z,10.58
2019-05-10T02:39:12.664Z,10.60
2019-05-10T02:41:44.619Z,10.59
2019-05-10T02:44:16.576Z,10.59
2019-05-10T02:46:48.619Z,10.49
2019-05-10T02:49:20.569Z,10.54
2019-05-10T02:51:52.550Z,10.57
2019-05-10T02:54:24.534Z,10.52
2019-05-10T02:56:57.541Z,10.51
2019-05-10T02:59:29.807Z,10.52
2019-05-10T03:02:04.206Z,10.47
2019-05-10T03:04:36.589Z,10.42
2019-05-10T03:07:08.582Z,10.41
2019-05-10T03:09:40.683Z,10.43
2019-05-10T03:12:23.746Z,10.36
2019-05-10T03:14:56.976Z,10.35
2019-05-10T03:17:28.928Z,10.37
2019-05-10T03:20:01.020Z,10.34
2019-05-10T03:22:38.608Z,10.27
2019-05-10T03:25:11.650Z,10.11
2019-05-10T03:27:43.709Z,10.19
2019-05-10T03:30:15.674Z,10.14
2019-05-10T03:32:48.398Z,10.18
2019-05-10T03:35:20.310Z,10.22
2019-05-10T03:37:52.479Z,10.30
2019-05-10T03:40:24.423Z,10.29
2019-05-10T03:42:56.379Z,10.28
2019-05-10T03:45:30.165Z,10.31
2019-05-10T03:48:02.114Z,10.33
2019-05-10T03:50:34.074Z,10.40
2019-05-10T03:53:06.075Z,10.43
2019-05-10T03:55:38.019Z,10.42
2019-05-10T03:58:09.977Z,10.44
2019-05-10T04:00:41.924Z,10.46
2019-05-10T04:03:13.912Z,10.45
2019-05-10T04:05:45.884Z,10.48
2019-05-10T04:08:17.886Z,10.51
2019-05-10T04:10:49.871Z,10.51
2019-05-10T04:13:21.822Z,10.48
2019-05-10T04:15:56.757Z,10.51
2019-05-10T04:18:28.736Z,10.55
2019-05-10T04:21:00.689Z,10.58
2019-05-10T04:23:32.769Z,10.60
2019-05-10T04:26:04.732Z,10.60
2019-05-10T04:28:36.752Z,10.65
2019-05-10T04:31:08.729Z,10.65
2019-05-10T04:33:40.733Z,10.65
2019-05-10T04:36:13.156Z,10.67
2019-05-10T04:38:45.250Z,10.70
2019-05-10T04:41:17.250Z,10.69
2019-05-10T04:43:49.321Z,10.73
2019-05-10T04:46:21.277Z,10.71
2019-05-10T04:48:53.267Z,10.73
2019-05-10T04:51:25.223Z,10.73
2019-05-10T04:53:57.194Z,10.88
2019-05-10T04:56:29.156Z,10.80
2019-05-10T04:59:01.165Z,10.77
2019-05-10T05:01:33.308Z,10.75
2019-05-10T05:04:05.295Z,10.80
2019-05-10T05:06:37.287Z,10.80
2019-05-10T05:09:09.286Z,10.82
2019-05-10T05:11:41.228Z,10.85
2019-05-10T05:14:13.239Z,10.89
2019-05-10T05:16:45.247Z,10.89
2019-05-10T05:19:17.237Z,10.97
2019-05-10T05:21:49.193Z,10.99
2019-05-10T05:24:23.069Z,11.06
2019-05-10T05:26:54.999Z,11.12
2019-05-10T05:29:26.953Z,11.19
2019-05-10T05:32:01.397Z,11.27
2019-05-10T05:34:32.829Z,11.42
2019-05-10T05:37:04.755Z,11.50
2019-05-10T05:39:36.747Z,11.81
2019-05-10T05:42:08.725Z,12.30
2019-05-10T05:44:40.726Z,12.36
2019-05-10T05:47:12.754Z,12.32
2019-05-10T05:49:44.728Z,12.45
2019-05-10T05:52:16.702Z,12.61
2019-05-10T05:54:52.851Z,12.88
2019-05-10T05:57:27.652Z,13.00
2019-05-10T05:59:57.619Z,13.07
2019-05-10T06:02:30.283Z,13.17
2019-05-10T06:05:02.273Z,13.17
2019-05-10T06:07:38.058Z,13.16
2019-05-10T06:10:10.094Z,12.98
2019-05-10T06:12:44.486Z,12.82
2019-05-10T06:15:23.117Z,12.72
2019-05-10T06:17:57.241Z,12.69
2019-05-10T06:20:25.572Z,12.65
2019-05-10T06:23:06.441Z,12.70
2019-05-10T06:25:39.713Z,13.30
2019-05-10T06:28:17.499Z,13.94
2019-05-10T06:30:39.168Z,14.53
2019-05-10T06:33:13.274Z,15.37
2019-05-10T06:35:45.002Z,15.63
2019-05-10T06:38:17.004Z,15.55
2019-05-10T06:40:48.988Z,16.16
2019-05-10T06:43:20.964Z,16.32
2019-05-10T06:45:53.948Z,16.11
2019-05-10T06:48:29.569Z,16.18
2019-05-10T06:51:06.909Z,16.69
2019-05-10T06:53:34.019Z,16.78
2019-05-10T06:56:06.021Z,16.49
2019-05-10T06:58:38.496Z,16.42
2019-05-10T07:01:10.578Z,16.24
2019-05-10T07:03:42.582Z,16.07
2019-05-10T07:06:14.591Z,15.98
2019-05-10T07:08:51.886Z,15.75
2019-05-10T07:11:20.527Z,15.57
2019-05-10T07:13:53.120Z,15.33
2019-05-10T07:16:26.200Z,15.34
2019-05-10T07:19:00.633Z,15.42
2019-05-10T07:21:32.143Z,15.31
2019-05-10T07:24:04.150Z,15.47
2019-05-10T07:26:36.113Z,15.50
2019-05-10T07:29:08.119Z,15.62
2019-05-10T07:31:41.361Z,15.81
2019-05-10T07:34:15.805Z,16.11
2019-05-10T07:36:47.463Z,16.39
2019-05-10T07:39:19.430Z,16.51
2019-05-10T07:41:51.386Z,16.67
2019-05-10T07:44:23.381Z,16.77
2019-05-10T07:47:00.045Z,16.80
2019-05-10T07:49:32.564Z,16.86
2019-05-10T07:52:04.745Z,17.19
2019-05-10T07:54:37.572Z,17.40
2019-05-10T07:57:10.647Z,17.54
2019-05-10T07:59:50.578Z,17.72
2019-05-10T08:02:16.652Z,17.75
2019-05-10T08:04:51.307Z,17.57
2019-05-10T08:07:22.508Z,17.49
2019-05-10T08:09:54.482Z,17.44
2019-05-10T08:12:28.820Z,17.44
2019-05-10T08:15:00.351Z,17.32
2019-05-10T08:17:35.446Z,17.23
2019-05-10T08:20:09.054Z,17.06
2019-05-10T08:22:42.260Z,16.80
2019-05-10T08:25:15.398Z,16.58
2019-05-10T08:27:50.822Z,16.25
2019-05-10T08:30:42.622Z,16.28
2019-05-10T08:33:14.473Z,16.19
2019-05-10T08:35:52.473Z,16.15
2019-05-10T08:38:21.938Z,16.21
2019-05-10T08:40:54.022Z,16.32
2019-05-10T08:43:30.797Z,16.51
2019-05-10T08:46:02.505Z,16.71
2019-05-10T08:48:38.212Z,16.85
2019-05-10T08:51:07.815Z,17.20
2019-05-10T08:53:42.187Z,17.59
2019-05-10T08:56:21.047Z,17.70
2019-05-10T08:58:47.615Z,17.87
2019-05-10T09:01:27.595Z,18.12
2019-05-10T09:03:59.952Z,18.36
2019-05-10T09:06:27.389Z,18.54
2019-05-10T09:09:05.963Z,18.51
2019-05-10T09:11:33.278Z,18.50
2019-05-10T09:14:05.271Z,18.49
2019-05-10T09:16:43.464Z,18.40
2019-05-10T09:19:12.499Z,18.24
2019-05-10T09:21:49.806Z,18.36
2019-05-10T09:24:18.493Z,18.47
2019-05-10T09:26:52.833Z,18.57
2019-05-10T09:29:27.335Z,18.77
2019-05-10T09:32:00.985Z,18.88
2019-05-10T09:34:32.576Z,19.03
2019-05-10T09:37:08.094Z,19.04
2019-05-10T09:39:38.496Z,19.20
2019-05-10T09:42:24.756Z,19.31
2019-05-10T09:44:46.078Z,19.50
2019-05-10T09:47:18.196Z,19.68
2019-05-10T09:49:54.123Z,19.73
2019-05-10T09:52:24.092Z,19.64
2019-05-10T09:54:56.977Z,19.43
2019-05-10T09:57:32.150Z,19.21
2019-05-10T10:00:03.642Z,19.08
2019-05-10T10:02:37.272Z,18.87
2019-05-10T10:05:09.508Z,18.77
2019-05-10T10:07:41.490Z,18.72
2019-05-10T10:10:21.302Z,18.70
2019-05-10T10:12:47.611Z,18.71
2019-05-10T10:15:32.089Z,18.63
2019-05-10T10:17:53.685Z,18.58
2019-05-10T10:20:29.805Z,18.50
2019-05-10T10:22:59.527Z,18.32
2019-05-10T10:25:35.172Z,18.39
2019-05-10T10:28:08.250Z,18.40
2019-05-10T10:30:39.333Z,18.21
2019-05-10T10:33:16.044Z,18.19
2019-05-10T10:35:47.895Z,18.18
2019-05-10T10:38:19.100Z,18.26
2019-05-10T10:40:51.111Z,18.42
2019-05-10T10:43:23.071Z,18.40
2019-05-10T10:45:57.219Z,18.67
2019-05-10T10:48:28.982Z,18.68
2019-05-10T10:51:01.021Z,18.42
2019-05-10T10:53:33.042Z,18.32
2019-05-10T10:56:07.478Z,18.37
2019-05-10T10:58:38.976Z,18.23
2019-05-10T11:01:21.562Z,18.23
2019-05-10T11:03:44.866Z,18.31
2019-05-10T11:06:16.881Z,18.45
2019-05-10T11:08:51.688Z,18.53
2019-05-10T11:11:22.793Z,18.61
2019-05-10T11:14:02.167Z,18.56
2019-05-10T11:16:30.300Z,18.58
2019-05-10T11:19:09.170Z,18.68
2019-05-10T11:21:37.261Z,18.71
2019-05-10T11:24:10.460Z,18.71
2019-05-10T11:26:44.959Z,18.89
2019-05-10T11:29:25.434Z,19.04
2019-05-10T11:32:11.097Z,19.17
2019-05-10T11:34:29.367Z,19.26
2019-05-10T11:36:58.740Z,18.95
2019-05-10T11:39:34.784Z,18.85
2019-05-10T11:42:07.139Z,18.96
2019-05-10T11:44:41.576Z,18.89
2019-05-10T11:47:23.405Z,18.96
2019-05-10T11:49:46.433Z,18.74
2019-05-10T11:52:18.411Z,18.71
2019-05-10T11:54:51.445Z,18.49
2019-05-10T11:57:23.767Z,18.20
2019-05-10T11:59:55.754Z,17.88
2019-05-10T12:02:38.707Z,17.71
2019-05-10T12:05:11.145Z,17.72
2019-05-10T12:07:44.976Z,17.72
2019-05-10T12:12:59.857Z,17.53
2019-05-10T12:15:24.766Z,17.44
2019-05-10T12:17:57.953Z,17.32
2019-05-10T12:20:38.530Z,17.18
2019-05-10T12:23:03.139Z,17.40
2019-05-10T12:25:47.200Z,17.47
2019-05-10T12:26:31.061Z,17.64
2019-05-10T12:28:06.824Z,17.43
2019-05-10T12:30:40.875Z,17.46
2019-05-10T12:33:23.906Z,17.34
2019-05-10T12:35:47.497Z,17.52
2019-05-10T12:38:23.560Z,17.66
2019-05-10T12:40:53.552Z,17.77
2019-05-10T12:43:25.573Z,17.87
2019-05-10T12:45:57.602Z,17.94
2019-05-10T12:48:31.769Z,17.89
2019-05-10T12:51:08.251Z,17.97
2019-05-10T12:53:44.402Z,18.09
2019-05-10T12:56:11.390Z,18.04
2019-05-10T12:58:43.372Z,18.20
2019-05-10T13:01:15.367Z,18.21
2019-05-10T13:03:47.346Z,18.26
2019-05-10T13:06:19.861Z,18.30
2019-05-10T13:08:52.033Z,18.24
2019-05-10T13:11:25.397Z,18.08
2019-05-10T13:14:01.019Z,18.14
2019-05-10T13:16:31.897Z,18.10
2019-05-10T13:19:03.905Z,18.11
2019-05-10T13:21:35.914Z,18.08
2019-05-10T13:24:07.911Z,18.01
2019-05-10T13:26:39.920Z,18.06
2019-05-10T13:29:11.925Z,18.05
2019-05-10T13:31:44.460Z,18.03
2019-05-10T13:34:16.496Z,18.18
2019-05-10T13:36:48.545Z,18.16
2019-05-10T13:39:25.720Z,18.12
2019-05-10T13:41:57.068Z,18.03
2019-05-10T13:44:28.319Z,18.06
2019-05-10T13:47:00.339Z,18.18
2019-05-10T13:49:32.364Z,18.19
2019-05-10T13:52:04.386Z,18.17
2019-05-10T13:54:37.922Z,18.12
2019-05-10T13:57:10.089Z,18.09
2019-05-10T13:59:42.075Z,18.01
2019-05-10T14:02:14.072Z,18.07
2019-05-10T14:04:46.030Z,18.30
2019-05-10T14:07:18.058Z,18.38
2019-05-10T14:09:50.031Z,18.36
2019-05-10T14:12:25.530Z,18.41
2019-05-10T14:15:02.989Z,18.40
2019-05-10T14:17:29.868Z,18.40
2019-05-10T14:20:01.882Z,18.32
2019-05-10T14:22:33.898Z,18.25
2019-05-10T14:25:06.229Z,18.14
2019-05-10T14:27:38.724Z,17.99
2019-05-10T14:30:13.341Z,17.86
2019-05-10T14:32:44.772Z,17.58
2019-05-10T14:35:22.667Z,17.08
2019-05-10T14:37:50.712Z,16.59
2019-05-10T14:40:30.787Z,16.42
2019-05-10T14:42:56.651Z,16.25
2019-05-10T14:45:28.621Z,16.16
2019-05-10T14:48:00.815Z,15.94
2019-05-10T14:50:32.833Z,16.03
2019-05-10T14:53:04.853Z,15.94
2019-05-10T14:55:37.090Z,15.96
2019-05-10T14:58:09.158Z,15.97
2019-05-10T15:00:41.166Z,15.98
2019-05-10T15:03:13.176Z,16.10
2019-05-10T15:05:48.788Z,16.13
2019-05-10T15:08:19.101Z,16.22
2019-05-10T15:10:51.103Z,16.20
2019-05-10T15:13:25.924Z,16.15
2019-05-10T15:15:57.077Z,16.11
2019-05-10T15:18:29.078Z,16.27
2019-05-10T15:21:01.069Z,16.34
2019-05-10T15:23:33.097Z,16.41
2019-05-10T15:26:11.504Z,16.55
2019-05-10T15:28:40.203Z,16.47
2019-05-10T15:31:12.996Z,16.44
2019-05-10T15:33:45.039Z,16.48
2019-05-10T15:36:17.095Z,16.30
2019-05-10T15:38:51.941Z,16.33
2019-05-10T15:41:24.054Z,16.38
2019-05-10T15:43:56.272Z,16.33
2019-05-10T15:46:35.700Z,16.30
2019-05-10T15:49:02.245Z,16.29
2019-05-10T15:51:36.566Z,16.33
2019-05-10T15:54:08.203Z,16.34
2019-05-10T15:56:41.487Z,16.40
2019-05-10T15:59:19.223Z,16.50
2019-05-10T16:01:48.076Z,16.46
2019-05-10T16:04:20.087Z,16.50
2019-05-10T16:06:52.120Z,16.52
2019-05-10T16:09:24.105Z,16.53
2019-05-10T16:12:01.669Z,16.58
2019-05-10T16:14:33.208Z,16.61
2019-05-10T16:17:04.052Z,16.65
2019-05-10T16:19:36.043Z,16.62
2019-05-10T16:22:08.075Z,16.60
2019-05-10T16:24:40.058Z,16.50
2019-05-10T16:27:12.083Z,16.42
2019-05-10T16:29:44.116Z,16.23
2019-05-10T16:32:16.189Z,16.22
2019-05-10T16:34:48.207Z,16.12
2019-05-10T16:37:20.206Z,15.97
2019-05-10T16:39:52.175Z,15.91
2019-05-10T16:42:27.890Z,15.76
2019-05-10T16:44:58.153Z,15.75
2019-05-10T16:47:30.217Z,15.80
2019-05-10T16:50:02.289Z,15.74
2019-05-10T16:52:34.300Z,15.73
2019-05-10T16:55:09.450Z,15.60
2019-05-10T16:57:40.391Z,15.52
2019-05-10T17:00:12.714Z,15.51
2019-05-10T17:02:44.741Z,15.55
2019-05-10T17:05:17.468Z,15.52
2019-05-10T17:07:53.731Z,15.47
2019-05-10T17:10:26.819Z,15.49
2019-05-10T17:13:04.295Z,15.52
2019-05-10T17:15:33.928Z,15.52
2019-05-10T17:18:10.683Z,15.62
2019-05-10T17:20:39.264Z,15.66
2019-05-10T17:23:11.418Z,15.70
2019-05-10T17:25:43.404Z,15.72
2019-05-10T17:28:15.443Z,15.76
2019-05-10T17:30:47.482Z,15.76
2019-05-10T17:33:19.497Z,15.78
2019-05-10T17:35:51.512Z,15.81
2019-05-10T17:38:26.437Z,15.80
2019-05-10T17:40:58.451Z,15.76
2019-05-10T17:43:30.428Z,15.69
2019-05-10T17:46:02.483Z,15.71
2019-05-10T17:48:34.489Z,15.65
2019-05-10T17:51:06.509Z,15.62
2019-05-10T17:53:38.526Z,15.64
2019-05-10T17:56:10.533Z,15.63
2019-05-10T17:58:42.557Z,15.59
2019-05-10T18:01:14.543Z,15.62
2019-05-10T18:03:46.579Z,15.63
2019-05-10T18:06:24.073Z,15.69
2019-05-10T18:08:52.542Z,15.62
2019-05-10T18:11:24.605Z,15.50
2019-05-10T18:13:56.612Z,15.48
2019-05-10T18:16:28.609Z,15.47
2019-05-10T18:19:00.607Z,15.43
2019-05-10T18:21:32.627Z,15.44
2019-05-10T18:24:04.661Z,15.35
2019-05-10T18:26:39.691Z,15.33
2019-05-10T18:29:10.588Z,15.26
2019-05-10T18:31:55.113Z,15.23
2019-05-10T18:34:16.633Z,15.22
2019-05-10T18:36:51.484Z,15.18
2019-05-10T18:39:22.707Z,15.15
2019-05-10T18:41:54.739Z,15.10
2019-05-10T18:44:26.764Z,15.03
2019-05-10T18:46:58.773Z,14.99
2019-05-10T18:49:30.795Z,14.97
2019-05-10T18:52:04.598Z,14.82
2019-05-10T18:54:38.448Z,14.76
2019-05-10T18:57:12.260Z,14.65
2019-05-10T18:59:45.321Z,14.62
2019-05-10T19:02:19.970Z,14.61
2019-05-10T19:04:54.093Z,14.57
2019-05-10T19:07:26.262Z,14.52
2019-05-10T19:09:58.283Z,14.39
2019-05-10T19:12:33.558Z,14.34
2019-05-10T19:15:12.651Z,14.30
2019-05-10T19:17:45.824Z,14.21
2019-05-10T19:20:18.378Z,14.07
2019-05-10T19:22:50.153Z,14.00
2019-05-10T19:25:22.162Z,13.82
2019-05-10T19:27:54.129Z,13.74
2019-05-10T19:30:26.187Z,13.67
2019-05-10T19:32:58.249Z,13.52
2019-05-10T19:35:35.997Z,13.42
2019-05-10T19:38:04.319Z,13.35
2019-05-10T19:40:36.386Z,13.27
2019-05-10T19:43:08.363Z,13.32
2019-05-10T19:45:40.395Z,13.16
2019-05-10T19:48:12.408Z,13.06
2019-05-10T19:50:44.457Z,12.99
2019-05-10T19:53:16.498Z,12.93
2019-05-10T19:55:51.417Z,12.94
2019-05-10T19:58:26.428Z,12.84
2019-05-10T20:00:56.362Z,12.81
2019-05-10T20:03:28.369Z,12.81
2019-05-10T20:06:00.441Z,12.79
2019-05-10T20:08:32.507Z,12.77
2019-05-10T20:11:04.542Z,12.78
2019-05-10T20:13:36.567Z,12.78
2019-05-10T20:16:08.599Z,12.78
2019-05-10T20:18:40.592Z,12.77
2019-05-10T20:21:12.615Z,12.75
2019-05-10T20:23:44.654Z,12.64
2019-05-10T20:26:16.659Z,12.63
2019-05-10T20:28:48.739Z,12.68
2019-05-10T20:31:20.805Z,12.67
2019-05-10T20:33:52.826Z,12.54
2019-05-10T20:36:24.915Z,12.47
2019-05-10T20:38:56.952Z,12.47
2019-05-10T20:41:28.973Z,12.49
2019-05-10T20:44:00.978Z,12.49
2019-05-10T20:46:33.015Z,12.53
2019-05-10T20:49:05.076Z,12.60
2019-05-10T20:51:37.166Z,12.65
2019-05-10T20:54:09.159Z,12.62
2019-05-10T20:56:41.168Z,12.59
2019-05-10T20:59:13.145Z,12.49
2019-05-10T21:01:45.143Z,12.49
2019-05-10T21:04:17.153Z,12.54
2019-05-10T21:06:49.176Z,12.49
2019-05-10T21:09:21.153Z,12.52
2019-05-10T21:11:53.172Z,12.48
2019-05-10T21:14:25.207Z,12.43
2019-05-10T21:16:57.279Z,12.43
2019-05-10T21:19:29.281Z,12.40
2019-05-10T21:22:01.290Z,12.32
2019-05-10T21:24:34.647Z,12.28
2019-05-10T21:27:06.652Z,12.34
2019-05-10T21:29:38.755Z,12.28
2019-05-10T21:32:10.743Z,12.30
2019-05-10T21:34:42.755Z,12.31
2019-05-10T21:37:14.730Z,12.31
2019-05-10T21:39:46.757Z,12.25
2019-05-10T21:42:18.768Z,12.28
2019-05-10T21:44:50.829Z,12.23
2019-05-10T21:47:22.890Z,12.18
2019-05-10T21:49:54.837Z,12.26
2019-05-10T21:52:26.825Z,12.22
2019-05-10T21:54:58.805Z,12.22
2019-05-10T21:57:30.771Z,12.11
2019-05-10T22:00:03.958Z,12.07
2019-05-10T22:02:35.977Z,12.06
2019-05-10T22:05:07.998Z,12.00
2019-05-10T22:07:39.994Z,12.07
2019-05-10T22:10:12.000Z,11.97
2019-05-10T22:12:43.974Z,11.91
2019-05-10T22:15:15.984Z,11.95
2019-05-10T22:17:47.996Z,11.94
2019-05-10T22:20:20.010Z,11.91
2019-05-10T22:22:52.039Z,11.81
2019-05-10T22:25:24.103Z,11.79
2019-05-10T22:27:56.076Z,11.76
2019-05-10T22:30:28.063Z,11.72
2019-05-10T22:33:00.069Z,11.65
2019-05-10T22:35:32.090Z,11.63
2019-05-10T22:38:04.097Z,11.64
2019-05-10T22:40:36.105Z,11.65
2019-05-10T22:43:08.065Z,11.66
2019-05-10T22:45:40.087Z,11.77
2019-05-10T22:48:12.026Z,11.89
2019-05-10T22:50:44.035Z,11.77
2019-05-10T22:53:15.998Z,11.75
2019-05-10T22:55:48.018Z,11.68
2019-05-10T22:58:20.000Z,11.53
2019-05-10T23:00:52.004Z,11.41
2019-05-10T23:03:24.774Z,11.19
2019-05-10T23:05:57.020Z,11.15
2019-05-10T23:08:29.050Z,11.07
2019-05-10T23:11:01.282Z,10.94
2019-05-10T23:13:33.312Z,10.95
2019-05-10T23:16:05.329Z,11.01
2019-05-10T23:18:37.356Z,10.97
2019-05-10T23:21:09.355Z,10.95
2019-05-10T23:23:41.350Z,10.94
2019-05-10T23:26:13.351Z,10.96
2019-05-10T23:28:45.338Z,10.93
2019-05-10T23:31:17.291Z,10.82
2019-05-10T23:33:50.834Z,10.82
2019-05-10T23:36:22.818Z,10.94
2019-05-10T23:38:54.800Z,10.98
2019-05-10T23:41:26.781Z,10.91
2019-05-10T23:43:58.789Z,10.93
2019-05-10T23:46:30.798Z,11.05
2019-05-10T23:49:02.785Z,11.08
2019-05-10T23:51:34.773Z,11.08
2019-05-10T23:54:06.799Z,11.16
2019-05-10T23:56:38.751Z,11.22
2019-05-10T23:59:10.728Z,11.13
